WetterOnline ( https://www.wetteronline.de )

Wetter aktuell Seelow

Aktuelles Wetter: Manschnow (16m)

6-stündlich | Neueste Meldungen
Ortszeit Temperatur Wetter
Mo, 24.06. 14:00 26.8° C leicht bewölkt
Mo, 24.06. 8:00 17.7° C wolkenlos
Mo, 24.06. 2:00 16.3° C wolkenlos
So, 23.06. 20:00 26.2° C wolkenlos
So, 23.06. 14:00 26.3° C wolkenlos
So, 23.06. 8:00 17.0° C wolkenlos
So, 23.06. 2:00 15.5° C leicht bewölkt
Sa, 22.06. 20:00 24.1° C wolkenlos
Ortszeit Temperatur Wetter
Mo, 24.06. 16:00 29.3° C leicht bewölkt
Mo, 24.06. 15:50 29.3° C wolkig
Mo, 24.06. 15:40 28.5° C wolkig
Mo, 24.06. 15:30 28.9° C fast wolkenlos
Mo, 24.06. 15:20 28.9° C fast wolkenlos
Mo, 24.06. 15:10 28.8° C wolkenlos
Mo, 24.06. 15:00 28.4° C wolkenlos
Mo, 24.06. 14:30 27.9° C leicht bewölkt
Mo, 24.06. 14:00 26.8° C leicht bewölkt
Mo, 24.06. 13:30 26.6° C leicht bewölkt
Mo, 24.06. 13:00 26.2° C leicht bewölkt
Ortszeit Relative Feuchte Sichtweite
Mo, 24.06. 14:00 28% 24 km
Mo, 24.06. 8:00 63% 20 km
Mo, 24.06. 2:00 74% 50 km
So, 23.06. 20:00 33% 50 km
So, 23.06. 14:00 34% 28 km
So, 23.06. 8:00 70% 50 km
So, 23.06. 2:00 63% 70 km
Sa, 22.06. 20:00 41% 30 km
Ortszeit Relative Feuchte Sichtweite
Mo, 24.06. 16:00 24% 55 km
Mo, 24.06. 15:50 24% -
Mo, 24.06. 15:40 24% -
Mo, 24.06. 15:30 23% 40 km
Mo, 24.06. 15:20 23% -
Mo, 24.06. 15:10 24% -
Mo, 24.06. 15:00 26% 27 km
Mo, 24.06. 14:30 27% 25 km
Mo, 24.06. 14:00 28% 24 km
Mo, 24.06. 13:30 28% 50 km
Mo, 24.06. 13:00 29% 22 km
Ortszeit Niederschlagsmenge Niederschlagsart
Mo, 24.06. 14:00 0.0 l/m2 in 6 Std. -
Mo, 24.06. 8:00 0.0 l/m2 in 12 Std. -
Mo, 24.06. 2:00 0.0 l/m2 in 6 Std. -
So, 23.06. 20:00 0.0 l/m2 in 12 Std. -
So, 23.06. 14:00 0.0 l/m2 in 6 Std. -
So, 23.06. 8:00 0.0 l/m2 in 12 Std. -
So, 23.06. 2:00 0.0 l/m2 in 6 Std. -
Sa, 22.06. 20:00 0.0 l/m2 in 12 Std. -
Ortszeit Niederschlagsmenge Niederschlagsart
Mo, 24.06. 16:00 0.0 l/m2 in 1 Std. -
Mo, 24.06. 15:50 keine Meldung -
Mo, 24.06. 15:40 keine Meldung -
Mo, 24.06. 15:30 0.0 l/m2 in 1 Std. -
Mo, 24.06. 15:20 keine Meldung -
Mo, 24.06. 15:10 keine Meldung -
Mo, 24.06. 15:00 0.0 l/m2 in 1 Std. -
Mo, 24.06. 14:30 0.0 l/m2 in 1 Std. -
Mo, 24.06. 14:00 0.0 l/m2 in 1 Std. -
Mo, 24.06. 13:30 0.0 l/m2 in 1 Std. -
Mo, 24.06. 13:00 0.0 l/m2 in 1 Std. -
Ortszeit Stärke Spitze Richtung
km/h Bft. km/h Grad Sektor
Mo, 24.06. 14:00 13 3 31 50° NO
Mo, 24.06. 8:00 7 2 18 80° O
Mo, 24.06. 2:00 7 2 18 90° O
So, 23.06. 20:00 7 2 25 40° NO
So, 23.06. 14:00 11 2 29 90° O
So, 23.06. 8:00 9 2 19 60° NO
So, 23.06. 2:00 9 2 30 40° NO
Sa, 22.06. 20:00 15 3 26 30° NO
Ortszeit Stärke Spitze Richtung
km/h Bft. km/h Grad Sektor
Mo, 24.06. 16:00 11 2 24 50° NO
Mo, 24.06. 15:50 11 2 - 50° NO
Mo, 24.06. 15:40 13 3 - 50° NO
Mo, 24.06. 15:30 11 2 25 40° NO
Mo, 24.06. 15:20 11 2 - 40° NO
Mo, 24.06. 15:10 11 2 - 60° NO
Mo, 24.06. 15:00 11 2 25 60° NO
Mo, 24.06. 14:30 11 2 25 60° NO
Mo, 24.06. 14:00 13 3 26 50° NO
Mo, 24.06. 13:30 14 3 25 70° O
Mo, 24.06. 13:00 14 3 32 50° NO
Ortszeit Untergrenze Bedeckung Gattung
total tief tief mittel hoch
Mo, 24.06. 14:00 10500 m 6/8 0/8 - - -
Mo, 24.06. 8:00 - 0/8 0/8 - - -
Mo, 24.06. 2:00 - 0/8 0/8 - - -
So, 23.06. 20:00 - 0/8 0/8 - - -
So, 23.06. 14:00 - 0/8 0/8 - - -
So, 23.06. 8:00 - 0/8 0/8 - - -
So, 23.06. 2:00 2100 m 2/8 2/8 - - -
Sa, 22.06. 20:00 - 0/8 0/8 - - -
Ortszeit Bedeckungsgrad in Achtel und Wolkenuntergrenze
Mo, 24.06. 16:00 8(9000m)
Mo, 24.06. 15:50 8(9000m)
Mo, 24.06. 15:40 5(9000m) 7(10500m)
Mo, 24.06. 15:30 1(10500m)
Mo, 24.06. 15:20 1(10500m)
Mo, 24.06. 15:10 keine Wolken
Mo, 24.06. 15:00 keine Wolken
Mo, 24.06. 14:30 3(10500m)
Mo, 24.06. 14:00 6(10500m) 7(10500m)
Mo, 24.06. 13:30 4(10500m)
Mo, 24.06. 13:00 3(10500m)
Ortszeit Luftdruck NN (hPa) Tendenz (hPa in 3 Std.)
Mo, 24.06. 14:00 1024 - 1,1
Mo, 24.06. 8:00 1026 + 0,9
Mo, 24.06. 2:00 1024 + 1,2
So, 23.06. 20:00 1021 - 0,3
So, 23.06. 14:00 1023 - 0,7
So, 23.06. 8:00 1023 + 0,7
So, 23.06. 2:00 1022 + 0,8
Sa, 22.06. 20:00 1020 - 0,9
Ortszeit Luftdruck NN (hPa) Tendenz (hPa in 3 Std.)
Mo, 24.06. 16:00 1024 - 1,1
Mo, 24.06. 15:50 1024 keine Meldung
Mo, 24.06. 15:40 1024 keine Meldung
Mo, 24.06. 15:30 1024 - 1,1
Mo, 24.06. 15:20 1024 keine Meldung
Mo, 24.06. 15:10 1024 keine Meldung
Mo, 24.06. 15:00 1024 - 1,2
Mo, 24.06. 14:30 1024 - 1,3
Mo, 24.06. 14:00 1024 - 1,1
Mo, 24.06. 13:30 1024 - 1,2
Mo, 24.06. 13:00 1025 - 1,0
Ortszeit Schneehöhe (cm)
Mo, 24.06. 14:00 -
Mo, 24.06. 8:00 -
Mo, 24.06. 2:00 -
So, 23.06. 20:00 -
So, 23.06. 14:00 -
So, 23.06. 8:00 -
So, 23.06. 2:00 -
Sa, 22.06. 20:00 -
Ortszeit Schneehöhe (cm)
Mo, 24.06. 16:00 -
Mo, 24.06. 15:50 -
Mo, 24.06. 15:40 -
Mo, 24.06. 15:30 -
Mo, 24.06. 15:20 -
Mo, 24.06. 15:10 -
Mo, 24.06. 15:00 -
Mo, 24.06. 14:30 -
Mo, 24.06. 14:00 -
Mo, 24.06. 13:30 -
Mo, 24.06. 13:00 -
Link zu dieser Seite / Seite empfehlen

Das Wetter in ...